Decoded Metar for LEIB (IBIZA in SPAIN) (IATA:IBZ) | Meteo·Mobile Aviation Weather
aviador You're here:

LEIB Decoded Metar

IBIZA in SPAIN
Report Time2019-05-25 22:30:00
UTC Time2019-05-25 22:53:53
Flight Rules vfr VFR
WindCalm
Visibility9999 m
Phenomena:N/A
Clouds:Few 030 Hf
Expected CloudBase > 1,200 ft AGL from Temp-Dew spread
CeilingNone
Temp17°C (ISA +2)
Dew Point14°C (83% RH)
QNH1017 hPa
Density Alt361 ft
Elevation39 ft
Report Wrong Elevation
Raw Report
LEIB 252230Z 00000KT 9999 FEW030 17/14 Q1017 NOSIG=

Extra information for LEIB:More info

Metar Taf Metar & Taf Last 4 Metars F.Rules Stats Wind Profile Meteogram Temp Stats Airport Information Weather charts Add Link Nearby VenuesMetar ALERT Operation Metar Decoded Social comments